Time;durP1;ratioP1;P1;durP2;ratioP2;P2;SDS_P1;SDS_P2;PMS_P1;PMS_P2;Temp;Humidity;BMP_temperature;BMP_pressure;BME280_temperature;BME280_humidity;BME280_pressure;Samples;Min_cycle;Max_cycle;Signal;HPM_P1;HPM_P2
2023/04/24 00:02:23;;;;;;;0.60;0.60;;;19.30;47.20;;;;;;5028880;28;20230;-62
2023/04/24 00:04:49;;;;;;;0.80;0.73;;;19.30;47.20;;;;;;5029642;28;20218;-61
2023/04/24 00:07:16;;;;;;;0.70;0.70;;;19.30;47.20;;;;;;5021923;28;20840;-61
2023/04/24 00:09:45;;;;;;;0.80;0.60;;;19.30;47.20;;;;;;5027315;28;20605;-64
2023/04/24 00:12:11;;;;;;;0.70;0.70;;;19.30;47.20;;;;;;5022644;28;20576;-62
2023/04/24 00:14:36;;;;;;;0.97;0.87;;;19.30;47.20;;;;;;5030383;28;20443;-64
2023/04/24 00:17:02;;;;;;;0.67;0.60;;;19.30;47.20;;;;;;5032522;28;20228;-62
2023/04/24 00:19:28;;;;;;;0.60;0.60;;;19.30;47.20;;;;;;5035945;28;20234;-61
2023/04/24 00:21:53;;;;;;;1.10;0.60;;;19.30;47.20;;;;;;5033121;28;20218;-64
2023/04/24 00:24:20;;;;;;;2.40;1.20;;;19.30;47.20;;;;;;5032576;28;20442;-61
2023/04/24 00:26:45;;;;;;;0.67;0.67;;;19.30;47.20;;;;;;5034612;28;20240;-62
2023/04/24 00:29:11;;;;;;;0.80;0.60;;;19.30;47.20;;;;;;5028079;28;20435;-63
2023/04/24 00:31:36;;;;;;;0.90;0.60;;;19.30;47.20;;;;;;5024636;28;20246;-62
2023/04/24 00:34:02;;;;;;;0.70;0.60;;;19.30;47.20;;;;;;5033757;28;20284;-62
2023/04/24 00:36:28;;;;;;;0.80;0.70;;;19.30;47.20;;;;;;5021802;28;20257;-61
2023/04/24 00:38:54;;;;;;;0.83;0.83;;;19.30;47.20;;;;;;5029385;28;20922;-61
2023/04/24 00:41:21;;;;;;;0.63;0.57;;;19.30;47.20;;;;;;5028930;28;20628;-62
2023/04/24 00:43:46;;;;;;;1.03;0.73;;;19.30;47.30;;;;;;5033273;28;21133;-61
2023/04/24 00:46:12;;;;;;;0.70;0.70;;;19.30;47.20;;;;;;5025047;28;20442;-61
2023/04/24 00:48:40;;;;;;;0.70;0.60;;;19.30;47.20;;;;;;5027501;28;20301;-63
2023/04/24 00:51:05;;;;;;;0.70;0.70;;;19.30;47.20;;;;;;5034446;28;20461;-61
2023/04/24 00:53:31;;;;;;;0.70;0.70;;;19.30;47.20;;;;;;5028879;28;20452;-63
2023/04/24 00:55:57;;;;;;;0.90;0.80;;;19.30;47.20;;;;;;5030441;28;20275;-62
2023/04/24 00:58:23;;;;;;;0.70;0.60;;;19.30;47.30;;;;;;5025681;28;20340;-62
2023/04/24 01:00:50;;;;;;;0.80;0.60;;;19.20;47.10;;;;;;5033587;28;20444;-62
2023/04/24 01:03:16;;;;;;;0.80;0.70;;;19.30;47.20;;;;;;5025011;28;20313;-62
2023/04/24 01:05:42;;;;;;;0.90;0.70;;;19.30;47.30;;;;;;5032582;28;20452;-61
2023/04/24 01:08:07;;;;;;;0.70;0.70;;;19.30;47.20;;;;;;5028179;28;20438;-63
2023/04/24 01:10:36;;;;;;;0.70;0.70;;;19.30;47.20;;;;;;5029412;28;20229;-61
2023/04/24 01:13:01;;;;;;;0.60;0.53;;;19.30;47.20;;;;;;5032709;28;20226;-62
2023/04/24 01:15:27;;;;;;;0.60;0.60;;;19.30;47.20;;;;;;5030232;28;20434;-66
2023/04/24 01:17:52;;;;;;;0.77;0.57;;;19.30;47.20;;;;;;5023034;28;20675;-63
2023/04/24 01:20:19;;;;;;;0.73;0.73;;;19.30;47.20;;;;;;5030148;28;21252;-62
2023/04/24 01:22:44;;;;;;;0.70;0.70;;;19.30;47.20;;;;;;5028408;28;20226;-65
2023/04/24 01:25:10;;;;;;;0.60;0.60;;;19.30;47.30;;;;;;5033747;28;21752;-62
2023/04/24 01:27:35;;;;;;;0.70;0.60;;;19.20;47.10;;;;;;5030268;28;20218;-62
2023/04/24 01:30:01;;;;;;;1.53;0.70;;;19.30;47.20;;;;;;5028552;28;20257;-65
2023/04/24 01:32:28;;;;;;;0.60;0.50;;;19.20;47.10;;;;;;5024810;28;20230;-63
2023/04/24 01:34:55;;;;;;;0.83;0.83;;;19.30;47.30;;;;;;5035663;28;20670;-64
2023/04/24 01:37:20;;;;;;;0.80;0.63;;;19.30;47.20;;;;;;5029187;28;20489;-65
2023/04/24 01:39:46;;;;;;;0.70;0.70;;;19.30;47.20;;;;;;5028881;28;20552;-62
2023/04/24 01:42:13;;;;;;;0.70;0.70;;;19.30;47.20;;;;;;5027382;28;21179;-62
2023/04/24 01:44:39;;;;;;;0.70;0.67;;;19.30;47.20;;;;;;5020744;28;20229;-63
2023/04/24 01:47:05;;;;;;;0.60;0.60;;;19.30;47.20;;;;;;5028777;28;20438;-63
2023/04/24 01:49:32;;;;;;;0.80;0.70;;;19.30;47.30;;;;;;5018092;28;20484;-62
2023/04/24 01:51:58;;;;;;;0.80;0.77;;;19.20;47.20;;;;;;5031835;28;20454;-61
2023/04/24 01:54:23;;;;;;;0.70;0.70;;;19.30;47.30;;;;;;5024538;28;20866;-66
2023/04/24 01:56:49;;;;;;;1.10;0.90;;;19.30;47.20;;;;;;5024484;28;20304;-61
2023/04/24 01:59:16;;;;;;;0.93;0.90;;;19.30;47.30;;;;;;5031150;28;20304;-64
2023/04/24 02:01:42;;;;;;;0.70;0.70;;;19.30;47.30;;;;;;5030721;28;20546;-62
2023/04/24 02:04:08;;;;;;;0.80;0.80;;;19.20;47.20;;;;;;5032444;28;20464;-61
2023/04/24 02:06:34;;;;;;;0.77;0.77;;;19.20;48.00;;;;;;5029030;28;20587;-62
2023/04/24 02:09:00;;;;;;;0.80;0.70;;;19.20;47.20;;;;;;5018592;28;20445;-62
2023/04/24 02:11:26;;;;;;;0.70;0.70;;;19.30;47.30;;;;;;5028660;28;20237;-65
2023/04/24 02:13:52;;;;;;;0.80;0.70;;;19.20;47.20;;;;;;5019580;28;20430;-61
2023/04/24 02:16:21;;;;;;;0.80;0.80;;;19.30;47.20;;;;;;5029656;28;20883;-62
2023/04/24 02:18:46;;;;;;;0.80;0.80;;;19.30;47.20;;;;;;5028034;28;20530;-61
2023/04/24 02:21:12;;;;;;;0.90;0.90;;;19.30;47.20;;;;;;5022321;28;21328;-66
2023/04/24 02:23:37;;;;;;;0.70;0.70;;;19.30;47.20;;;;;;5026982;28;20227;-61
2023/04/24 02:26:03;;;;;;;0.80;0.80;;;19.30;47.30;;;;;;5028650;28;20215;-62
2023/04/24 02:28:28;;;;;;;0.80;0.63;;;19.30;47.30;;;;;;5029982;28;20313;-66
2023/04/24 02:30:54;;;;;;;1.13;1.03;;;19.30;47.30;;;;;;5029639;28;20217;-63
2023/04/24 02:33:19;;;;;;;0.90;0.80;;;19.30;47.30;;;;;;5025314;28;20694;-63
2023/04/24 02:35:45;;;;;;;0.70;0.70;;;19.30;47.30;;;;;;5019793;28;20727;-61
2023/04/24 02:38:10;;;;;;;0.90;0.80;;;19.30;47.30;;;;;;5035508;28;20873;-61
2023/04/24 02:40:36;;;;;;;0.80;0.80;;;19.20;47.20;;;;;;5036031;28;20763;-62
2023/04/24 02:43:01;;;;;;;1.17;0.90;;;19.30;47.30;;;;;;5029759;28;20218;-64
2023/04/24 02:45:27;;;;;;;1.00;0.90;;;19.30;47.30;;;;;;5030403;28;20222;-61
2023/04/24 02:47:52;;;;;;;0.97;0.90;;;19.30;47.30;;;;;;5032925;28;20222;-63
2023/04/24 02:50:18;;;;;;;0.80;0.80;;;19.20;47.20;;;;;;5014528;28;20594;-61
2023/04/24 02:52:43;;;;;;;0.83;0.83;;;19.30;47.30;;;;;;5021241;28;20325;-61
2023/04/24 02:55:09;;;;;;;0.80;0.77;;;19.30;47.30;;;;;;5028963;28;20222;-62
2023/04/24 02:57:35;;;;;;;0.80;0.80;;;19.20;47.20;;;;;;5033738;28;20241;-62
2023/04/24 03:00:00;;;;;;;1.17;1.07;;;19.20;47.10;;;;;;5030756;28;20308;-63
2023/04/24 03:02:26;;;;;;;0.90;0.90;;;19.30;47.30;;;;;;5029734;28;20691;-64
2023/04/24 03:04:51;;;;;;;0.80;0.80;;;19.30;47.30;;;;;;5036560;28;20256;-64
2023/04/24 03:07:20;;;;;;;1.07;0.93;;;19.20;47.20;;;;;;5034085;28;20264;-63
2023/04/24 03:09:46;;;;;;;0.80;0.80;;;19.20;47.20;;;;;;5037002;28;20275;-63
2023/04/24 03:12:11;;;;;;;1.00;0.90;;;19.30;47.30;;;;;;5032743;28;20818;-61
2023/04/24 03:14:37;;;;;;;0.73;0.70;;;19.30;47.30;;;;;;5031916;28;20232;-62
2023/04/24 03:17:02;;;;;;;1.13;1.00;;;19.30;47.30;;;;;;5033903;28;20238;-62
2023/04/24 03:19:28;;;;;;;1.00;0.90;;;19.30;47.30;;;;;;5031981;28;21497;-62
2023/04/24 03:21:53;;;;;;;1.00;0.77;;;19.20;47.20;;;;;;5035397;28;20236;-61
2023/04/24 03:24:20;;;;;;;1.00;0.90;;;19.30;47.30;;;;;;5034543;28;20674;-61
2023/04/24 03:26:46;;;;;;;1.10;1.00;;;19.30;47.30;;;;;;5022022;28;20219;-63
2023/04/24 03:29:11;;;;;;;1.20;0.93;;;19.30;47.30;;;;;;5020394;28;20454;-61
2023/04/24 03:31:36;;;;;;;0.80;0.80;;;19.30;47.30;;;;;;5032475;28;20238;-61
2023/04/24 03:34:02;;;;;;;0.83;0.83;;;19.20;47.30;;;;;;5033005;28;20222;-61
2023/04/24 03:36:28;;;;;;;0.90;0.83;;;19.20;47.20;;;;;;5024053;28;20223;-64
2023/04/24 03:38:53;;;;;;;1.00;0.90;;;19.30;47.30;;;;;;5030253;28;20296;-64
2023/04/24 03:41:19;;;;;;;1.00;0.90;;;19.20;47.30;;;;;;5019315;28;20226;-60
2023/04/24 03:43:44;;;;;;;1.10;1.00;;;19.20;47.30;;;;;;5032208;28;20219;-61
2023/04/24 03:46:10;;;;;;;0.90;0.90;;;19.20;47.20;;;;;;5031317;28;20222;-61
2023/04/24 03:48:36;;;;;;;1.00;1.00;;;19.30;47.30;;;;;;5036143;28;20396;-62
2023/04/24 03:51:01;;;;;;;1.40;1.30;;;19.20;47.20;;;;;;5027929;28;20726;-62
2023/04/24 03:53:27;;;;;;;0.90;0.90;;;19.20;47.20;;;;;;5034227;28;20241;-64
2023/04/24 03:55:53;;;;;;;1.00;1.00;;;19.30;47.30;;;;;;5028281;28;20284;-62
2023/04/24 03:58:18;;;;;;;1.23;1.10;;;19.20;47.20;;;;;;5032639;28;20284;-64
2023/04/24 04:00:46;;;;;;;1.20;1.10;;;19.20;47.30;;;;;;5028019;28;20670;-62
2023/04/24 04:03:13;;;;;;;1.10;1.00;;;19.20;47.20;;;;;;5028648;28;20580;-61
2023/04/24 04:05:38;;;;;;;0.97;0.97;;;19.20;47.30;;;;;;5032531;28;21703;-61
2023/04/24 04:08:04;;;;;;;1.17;1.10;;;19.20;48.00;;;;;;5031705;28;20541;-66
2023/04/24 04:10:29;;;;;;;1.10;1.00;;;19.20;47.30;;;;;;5030067;28;20214;-63
2023/04/24 04:12:55;;;;;;;1.30;1.20;;;19.20;47.20;;;;;;5035755;28;20245;-63
2023/04/24 04:15:20;;;;;;;1.37;1.00;;;19.20;47.20;;;;;;5029633;28;20729;-64
2023/04/24 04:17:46;;;;;;;1.07;1.00;;;19.20;47.20;;;;;;5028345;28;20292;-63
2023/04/24 04:20:12;;;;;;;1.30;1.20;;;19.20;47.20;;;;;;5031771;28;20344;-63
2023/04/24 04:22:37;;;;;;;1.03;1.03;;;19.20;47.20;;;;;;5022173;28;20246;-61
2023/04/24 04:25:04;;;;;;;1.23;1.13;;;19.20;47.20;;;;;;5018920;28;20678;-62
2023/04/24 04:27:31;;;;;;;1.20;1.10;;;19.20;48.00;;;;;;5033047;28;20685;-63
2023/04/24 04:30:04;;;;;;;0.97;0.90;;;19.20;47.30;;;;;;5026570;28;20499;-62
2023/04/24 04:32:33;;;;;;;1.00;1.00;;;19.20;47.30;;;;;;5033565;28;20510;-61
2023/04/24 04:35:02;;;;;;;1.30;1.20;;;19.20;47.30;;;;;;5033299;28;20463;-62
2023/04/24 04:37:35;;;;;;;1.03;1.00;;;19.20;47.30;;;;;;5037694;28;20984;-61
2023/04/24 04:40:06;;;;;;;1.30;1.20;;;19.20;47.30;;;;;;5031999;28;20464;-62
2023/04/24 04:42:33;;;;;;;1.10;1.00;;;19.20;47.30;;;;;;5027824;28;20565;-62
2023/04/24 04:44:59;;;;;;;2.20;1.10;;;19.20;47.30;;;;;;5027789;28;20827;-63
2023/04/24 04:47:26;;;;;;;1.10;1.00;;;19.20;47.30;;;;;;5030365;28;20444;-63
2023/04/24 04:49:51;;;;;;;1.07;0.97;;;19.20;47.30;;;;;;5026235;28;20333;-60
2023/04/24 04:52:18;;;;;;;0.90;0.90;;;19.20;47.20;;;;;;5033538;28;20468;-62
2023/04/24 04:54:43;;;;;;;1.20;1.10;;;19.20;47.30;;;;;;5028879;28;20229;-62
2023/04/24 04:57:10;;;;;;;1.20;1.10;;;19.20;47.30;;;;;;5031762;28;20463;-62
2023/04/24 04:59:36;;;;;;;0.97;0.97;;;19.20;47.30;;;;;;5024403;28;20230;-66
2023/04/24 05:02:02;;;;;;;1.20;1.10;;;19.20;47.50;;;;;;5034422;28;20437;-63
2023/04/24 05:04:28;;;;;;;1.30;1.20;;;19.20;47.30;;;;;;5025362;28;20434;-62
2023/04/24 05:06:53;;;;;;;1.30;1.20;;;19.20;47.30;;;;;;5034192;28;20324;-63
2023/04/24 05:09:19;;;;;;;1.10;1.10;;;19.20;47.30;;;;;;5015494;28;20884;-60
2023/04/24 05:11:44;;;;;;;0.93;0.93;;;19.20;47.30;;;;;;5032270;28;20226;-65
2023/04/24 05:14:10;;;;;;;1.20;1.10;;;19.20;47.20;;;;;;5029602;28;20219;-63
2023/04/24 05:16:36;;;;;;;1.27;1.17;;;19.20;47.20;;;;;;5024140;28;20242;-63
2023/04/24 05:19:03;;;;;;;1.30;1.20;;;19.20;47.20;;;;;;5035362;28;20227;-61
2023/04/24 05:21:29;;;;;;;1.07;1.03;;;19.20;47.30;;;;;;5031193;28;20453;-62
2023/04/24 05:23:54;;;;;;;1.47;1.30;;;19.20;47.30;;;;;;5030016;28;20474;-61
2023/04/24 05:26:20;;;;;;;1.50;1.40;;;19.20;47.30;;;;;;5017171;28;20424;-62
2023/04/24 05:28:45;;;;;;;1.13;1.03;;;19.20;47.30;;;;;;5034173;28;20222;-62
2023/04/24 05:31:12;;;;;;;1.30;1.20;;;19.20;47.30;;;;;;5022270;28;20276;-61
2023/04/24 05:33:37;;;;;;;3.00;1.50;;;19.20;47.30;;;;;;5029190;28;20233;-60
2023/04/24 05:36:03;;;;;;;2.70;2.50;;;19.20;47.00;;;;;;5030861;28;20787;-61
2023/04/24 05:38:29;;;;;;;1.40;1.30;;;19.20;46.70;;;;;;5031832;28;20229;-61
2023/04/24 05:40:55;;;;;;;1.17;1.07;;;19.20;46.60;;;;;;5036779;28;20418;-62
2023/04/24 05:43:20;;;;;;;1.00;1.00;;;19.20;46.60;;;;;;5035154;28;20247;-62
2023/04/24 05:45:46;;;;;;;1.20;1.10;;;19.20;46.70;;;;;;5037182;28;20658;-60
2023/04/24 05:48:11;;;;;;;1.20;1.10;;;19.20;46.70;;;;;;5033593;28;20678;-61
2023/04/24 05:50:36;;;;;;;1.27;1.17;;;19.20;46.80;;;;;;5033543;28;20222;-61
2023/04/24 05:53:03;;;;;;;1.03;1.00;;;19.20;46.80;;;;;;5033333;28;20246;-62
2023/04/24 05:55:30;;;;;;;1.30;1.10;;;19.20;46.90;;;;;;5034848;28;20599;-60
2023/04/24 05:57:55;;;;;;;1.40;1.30;;;19.20;46.90;;;;;;5034013;28;20474;-62
2023/04/24 06:00:21;;;;;;;1.30;1.20;;;19.20;46.90;;;;;;5035482;28;20592;-62
2023/04/24 06:02:47;;;;;;;1.33;1.20;;;19.20;46.90;;;;;;5032976;28;20619;-60
2023/04/24 06:05:12;;;;;;;1.30;1.20;;;19.20;46.90;;;;;;5033856;28;20700;-61
2023/04/24 06:07:38;;;;;;;1.40;1.27;;;19.20;47.00;;;;;;5027538;28;20226;-62
2023/04/24 06:10:03;;;;;;;1.30;1.20;;;19.20;47.80;;;;;;5030909;28;20264;-62
2023/04/24 06:12:29;;;;;;;1.30;1.20;;;19.20;47.00;;;;;;5041616;28;20363;-61
2023/04/24 06:14:55;;;;;;;2.30;1.40;;;19.20;47.00;;;;;;5038228;28;20261;-60
2023/04/24 06:17:21;;;;;;;1.30;1.20;;;19.20;47.00;;;;;;5037158;28;20316;-64
2023/04/24 06:19:47;;;;;;;1.00;1.00;;;19.20;47.00;;;;;;5039467;28;20483;-60
2023/04/24 06:22:12;;;;;;;1.00;1.00;;;19.20;47.00;;;;;;5038905;28;20341;-61
2023/04/24 06:24:40;;;;;;;1.73;1.20;;;19.20;47.10;;;;;;5035940;28;20481;-61
2023/04/24 06:27:05;;;;;;;1.30;1.20;;;19.20;47.00;;;;;;5036208;28;20319;-60
2023/04/24 06:29:31;;;;;;;1.40;1.30;;;19.20;47.10;;;;;;5035775;28;21158;-60
2023/04/24 06:31:56;;;;;;;1.30;1.20;;;19.20;47.00;;;;;;5040841;28;20238;-61
2023/04/24 06:34:22;;;;;;;1.10;1.00;;;19.20;47.10;;;;;;5039596;28;20226;-60
2023/04/24 06:36:47;;;;;;;2.10;1.30;;;19.20;47.10;;;;;;5026685;28;20288;-61
2023/04/24 06:39:13;;;;;;;1.37;1.27;;;19.10;47.10;;;;;;5034075;28;20309;-61
2023/04/24 06:41:39;;;;;;;1.10;1.00;;;19.20;47.10;;;;;;5034651;28;20249;-60
2023/04/24 06:44:05;;;;;;;1.30;1.20;;;19.20;47.10;;;;;;5037600;28;20244;-62
2023/04/24 06:46:30;;;;;;;1.10;1.00;;;19.20;47.10;;;;;;5036680;28;20930;-62
2023/04/24 06:48:56;;;;;;;1.27;1.17;;;19.20;47.10;;;;;;5035329;28;20698;-62
2023/04/24 06:51:23;;;;;;;1.30;1.20;;;19.20;47.10;;;;;;5035602;28;20243;-60
2023/04/24 06:53:49;;;;;;;1.07;1.03;;;19.20;47.10;;;;;;5032616;28;20226;-62
2023/04/24 06:56:15;;;;;;;1.20;1.10;;;19.20;47.10;;;;;;5033118;28;21136;-60
2023/04/24 06:58:41;;;;;;;1.20;1.10;;;19.10;47.00;;;;;;5033479;28;20474;-61
2023/04/24 07:01:06;;;;;;;1.03;1.03;;;19.20;47.10;;;;;;5037878;28;20240;-60
2023/04/24 07:03:32;;;;;;;1.20;1.10;;;19.20;47.10;;;;;;5028028;28;20438;-60
2023/04/24 07:05:57;;;;;;;1.40;1.30;;;19.20;47.10;;;;;;5036991;28;20222;-63
2023/04/24 07:08:23;;;;;;;1.23;1.13;;;19.20;47.10;;;;;;5035052;28;20305;-61
2023/04/24 07:10:50;;;;;;;1.20;1.10;;;19.20;47.10;;;;;;5049144;28;20294;-62
2023/04/24 07:13:16;;;;;;;1.20;1.10;;;19.20;47.10;;;;;;5035135;28;20240;-61
2023/04/24 07:15:42;;;;;;;1.40;1.30;;;19.20;47.00;;;;;;5034180;28;20423;-60
2023/04/24 07:18:08;;;;;;;1.67;1.10;;;19.10;47.00;;;;;;5021177;28;20509;-63
2023/04/24 07:20:34;;;;;;;1.13;1.07;;;19.20;47.10;;;;;;5025530;28;20577;-63
2023/04/24 07:22:59;;;;;;;1.20;1.10;;;19.20;47.10;;;;;;5027318;28;20223;-62
2023/04/24 07:25:25;;;;;;;1.20;1.10;;;19.20;47.10;;;;;;5034517;28;20228;-60
2023/04/24 07:27:50;;;;;;;1.20;1.10;;;19.20;47.10;;;;;;5037274;28;20218;-60
2023/04/24 07:30:16;;;;;;;1.67;1.00;;;19.20;47.10;;;;;;5036961;28;20550;-60
2023/04/24 07:32:41;;;;;;;1.30;1.20;;;19.20;47.10;;;;;;5033379;28;20261;-61
2023/04/24 07:35:09;;;;;;;1.13;1.03;;;19.10;47.10;;;;;;5036294;28;20949;-60
2023/04/24 07:37:35;;;;;;;1.20;1.10;;;19.10;47.80;;;;;;5035869;28;20316;-62
2023/04/24 07:40:00;;;;;;;1.03;0.93;;;19.20;47.10;;;;;;5036004;28;20977;-61
2023/04/24 07:42:26;;;;;;;1.20;1.10;;;19.10;47.10;;;;;;5037487;28;20785;-61
2023/04/24 07:44:51;;;;;;;1.07;1.00;;;19.20;47.10;;;;;;5035105;28;20214;-61
2023/04/24 07:47:17;;;;;;;1.00;0.90;;;19.20;47.10;;;;;;5036076;28;20750;-62
2023/04/24 07:49:42;;;;;;;1.20;1.10;;;19.10;47.10;;;;;;5038673;28;20244;-62
2023/04/24 07:52:08;;;;;;;1.10;1.00;;;19.20;47.10;;;;;;5035163;28;20270;-63
2023/04/24 07:54:34;;;;;;;0.80;0.80;;;19.10;47.10;;;;;;5037017;28;20253;-60
2023/04/24 07:57:00;;;;;;;1.07;1.00;;;19.10;47.10;;;;;;5036943;28;20229;-61
2023/04/24 07:59:26;;;;;;;1.20;1.17;;;19.10;47.10;;;;;;5039278;28;20289;-61
2023/04/24 08:01:51;;;;;;;1.10;0.93;;;19.10;47.10;;;;;;5028415;28;20450;-60
2023/04/24 08:04:17;;;;;;;0.90;0.90;;;19.10;47.10;;;;;;5037197;28;20652;-60
2023/04/24 08:06:43;;;;;;;0.80;0.80;;;19.10;47.10;;;;;;5036231;28;20238;-60
2023/04/24 08:09:09;;;;;;;1.40;1.20;;;19.10;47.00;;;;;;5035070;28;20443;-60
2023/04/24 08:11:35;;;;;;;1.30;1.20;;;19.10;47.00;;;;;;5037250;28;20321;-60
2023/04/24 08:14:00;;;;;;;0.90;0.90;;;19.10;47.00;;;;;;5033834;28;20222;-61
2023/04/24 08:16:26;;;;;;;1.10;1.00;;;19.10;47.00;;;;;;5035645;28;20214;-64
2023/04/24 08:18:52;;;;;;;1.63;0.97;;;19.10;47.00;;;;;;5036362;28;20253;-60
2023/04/24 08:21:18;;;;;;;1.30;1.10;;;19.10;47.00;;;;;;5037824;28;20658;-61
2023/04/24 08:23:47;;;;;;;1.10;1.00;;;19.10;47.10;;;;;;5034183;28;20507;-60
2023/04/24 08:26:13;;;;;;;1.00;1.00;;;19.10;47.10;;;;;;5033837;28;20437;-62
2023/04/24 08:28:39;;;;;;;1.20;1.10;;;19.10;47.00;;;;;;5036739;28;20517;-61
2023/04/24 08:31:05;;;;;;;1.20;1.10;;;19.10;47.00;;;;;;5036454;28;20986;-60
2023/04/24 08:33:34;;;;;;;1.03;0.93;;;19.10;47.10;;;;;;5033739;28;20222;-63
2023/04/24 08:36:01;;;;;;;1.57;1.23;;;19.10;47.10;;;;;;5035666;28;20229;-62
2023/04/24 08:38:27;;;;;;;0.90;0.90;;;19.10;47.10;;;;;;5034426;28;20456;-62
2023/04/24 08:40:53;;;;;;;1.13;1.03;;;19.10;47.00;;;;;;5037745;28;20473;-62
2023/04/24 08:43:20;;;;;;;1.00;0.90;;;19.10;47.10;;;;;;5033637;28;20222;-64
2023/04/24 08:45:46;;;;;;;1.00;1.00;;;19.10;47.10;;;;;;5032305;28;23873;-60
2023/04/24 08:48:12;;;;;;;0.97;0.90;;;19.10;47.10;;;;;;5023265;28;21031;-61
2023/04/24 08:50:38;;;;;;;0.83;0.83;;;19.10;47.10;;;;;;5036910;28;20234;-63
2023/04/24 08:53:06;;;;;;;1.30;1.10;;;19.10;47.10;;;;;;5025178;28;20443;-60
2023/04/24 08:55:33;;;;;;;1.10;1.00;;;19.10;47.10;;;;;;5036399;28;21095;-62
2023/04/24 08:58:00;;;;;;;0.80;0.80;;;19.10;47.10;;;;;;5033189;28;20945;-61
2023/04/24 09:00:26;;;;;;;1.00;1.00;;;19.10;47.10;;;;;;5023685;28;20504;-60
2023/04/24 09:02:53;;;;;;;1.23;1.00;;;19.10;47.10;;;;;;5031409;28;20986;-62
2023/04/24 09:05:21;;;;;;;1.23;0.90;;;19.10;47.10;;;;;;5026486;28;20425;-62
2023/04/24 09:07:53;;;;;;;0.80;0.80;;;19.10;47.10;;;;;;5027703;28;20973;-60
2023/04/24 09:10:19;;;;;;;1.00;0.90;;;19.10;47.10;;;;;;5029204;28;20426;-62
2023/04/24 09:12:45;;;;;;;1.10;1.00;;;19.10;47.10;;;;;;5032455;28;20533;-60
2023/04/24 09:15:11;;;;;;;0.80;0.80;;;19.10;47.10;;;;;;5035137;28;20453;-61
2023/04/24 09:17:37;;;;;;;0.80;0.80;;;19.10;47.20;;;;;;5034643;28;20516;-60
2023/04/24 09:20:04;;;;;;;0.90;0.90;;;19.10;47.20;;;;;;5036186;28;20251;-62
2023/04/24 09:22:30;;;;;;;0.80;0.80;;;19.10;47.20;;;;;;5025886;28;20434;-61
2023/04/24 09:25:05;;;;;;;0.80;0.80;;;19.10;47.20;;;;;;5035570;28;20536;-60
2023/04/24 09:27:31;;;;;;;1.10;0.83;;;19.10;47.20;;;;;;5033512;28;20433;-62
2023/04/24 09:29:58;;;;;;;1.10;1.00;;;19.10;47.20;;;;;;5034360;28;20460;-60
2023/04/24 09:32:29;;;;;;;0.90;0.90;;;19.10;47.20;;;;;;5034237;28;20463;-60
2023/04/24 09:35:07;;;;;;;0.87;0.87;;;19.10;47.20;;;;;;5034575;28;20444;-61
2023/04/24 09:37:46;;;;;;;0.90;0.90;;;19.10;48.00;;;;;;5035847;28;20466;-60
2023/04/24 09:40:13;;;;;;;1.23;1.10;;;19.10;47.20;;;;;;5026460;28;20437;-60
2023/04/24 09:42:40;;;;;;;0.90;0.90;;;19.10;47.20;;;;;;5032715;28;21002;-60
2023/04/24 09:45:10;;;;;;;0.80;0.80;;;19.10;47.20;;;;;;5033653;28;20441;-62
2023/04/24 09:47:39;;;;;;;0.87;0.87;;;19.10;47.20;;;;;;5023155;28;20451;-60
2023/04/24 09:50:16;;;;;;;0.83;0.83;;;19.10;47.30;;;;;;5034911;28;20462;-65
2023/04/24 09:52:55;;;;;;;2.20;0.90;;;19.10;47.20;;;;;;5030730;28;20455;-61
2023/04/24 09:55:21;;;;;;;1.07;0.97;;;19.10;47.20;;;;;;5033589;28;20413;-61
2023/04/24 09:57:51;;;;;;;1.17;1.07;;;19.10;47.20;;;;;;5019662;28;20429;-61
2023/04/24 10:00:25;;;;;;;1.10;0.90;;;19.10;47.20;;;;;;5032998;28;20232;-60
2023/04/24 10:03:01;;;;;;;1.23;1.13;;;19.10;47.20;;;;;;5031446;28;20421;-62
2023/04/24 10:05:29;;;;;;;1.00;0.93;;;19.10;47.20;;;;;;5031571;28;20785;-63
2023/04/24 10:08:11;;;;;;;1.10;1.00;;;19.10;47.10;;;;;;5035612;28;20422;-61
2023/04/24 10:10:40;;;;;;;1.23;1.13;;;19.10;47.20;;;;;;5031594;28;20971;-61
2023/04/24 10:13:07;;;;;;;1.20;1.10;;;19.10;47.20;;;;;;5024575;28;20783;-60
2023/04/24 10:15:33;;;;;;;1.37;1.23;;;19.10;47.20;;;;;;5031473;28;20433;-62
2023/04/24 10:17:59;;;;;;;1.00;0.90;;;19.10;47.20;;;;;;5014993;28;20458;-61
2023/04/24 10:20:29;;;;;;;1.20;1.10;;;19.10;47.20;;;;;;5037501;28;20226;-60
2023/04/24 10:22:55;;;;;;;1.20;1.10;;;19.10;47.20;;;;;;5032271;28;20425;-61
2023/04/24 10:25:30;;;;;;;1.10;1.00;;;19.10;47.10;;;;;;5033502;28;20451;-60
2023/04/24 10:27:59;;;;;;;1.10;1.00;;;19.10;47.20;;;;;;5029781;28;20451;-61
2023/04/24 10:30:26;;;;;;;1.17;1.07;;;19.10;47.20;;;;;;5032846;28;20455;-60
2023/04/24 10:32:52;;;;;;;1.10;1.00;;;19.10;47.20;;;;;;5032410;28;20446;-62
2023/04/24 10:35:21;;;;;;;1.33;1.23;;;19.10;47.20;;;;;;5023622;28;20928;-61
2023/04/24 10:38:03;;;;;;;1.30;1.20;;;19.10;47.90;;;;;;5032136;28;20253;-60
2023/04/24 10:40:34;;;;;;;1.30;1.20;;;19.10;47.20;;;;;;5031027;28;20433;-61
2023/04/24 10:43:06;;;;;;;1.17;1.10;;;19.10;47.10;;;;;;5030205;28;20448;-63
2023/04/24 10:45:31;;;;;;;1.20;1.10;;;19.10;47.20;;;;;;5032927;28;20502;-62
2023/04/24 10:48:13;;;;;;;1.00;1.00;;;19.10;47.10;;;;;;5030225;28;21204;-63
2023/04/24 10:50:47;;;;;;;1.13;1.03;;;19.10;47.10;;;;;;5033411;28;20261;-62
2023/04/24 10:53:20;;;;;;;1.27;1.10;;;19.10;47.20;;;;;;5035303;28;20438;-63
2023/04/24 10:55:51;;;;;;;1.03;1.00;;;19.10;47.10;;;;;;5038492;28;20434;-61
2023/04/24 10:58:40;;;;;;;1.27;1.17;;;19.10;47.10;;;;;;5033268;28;20433;-65
2023/04/24 11:01:07;;;;;;;1.20;1.10;;;19.10;47.10;;;;;;5036472;28;20459;-61
2023/04/24 11:03:34;;;;;;;1.03;1.00;;;19.10;47.10;;;;;;5031107;28;20441;-65
2023/04/24 11:06:06;;;;;;;1.30;1.20;;;19.10;47.10;;;;;;5030425;28;20436;-62
2023/04/24 11:08:39;;;;;;;1.30;1.20;;;19.10;47.10;;;;;;5032416;28;20435;-62
2023/04/24 11:11:16;;;;;;;1.37;1.27;;;19.10;47.10;;;;;;5034172;28;20475;-62
2023/04/24 11:13:54;;;;;;;1.27;1.17;;;19.10;47.10;;;;;;5036009;28;20474;-63
2023/04/24 11:16:22;;;;;;;1.13;1.03;;;19.10;47.10;;;;;;5037797;28;20417;-62
2023/04/24 11:19:08;;;;;;;1.27;1.17;;;19.10;47.10;;;;;;5036341;28;20434;-61
2023/04/24 11:21:48;;;;;;;1.40;1.30;;;19.10;47.10;;;;;;5029259;28;20510;-61
2023/04/24 11:24:32;;;;;;;1.13;1.03;;;19.10;47.10;;;;;;5045461;28;20518;-62
2023/04/24 11:27:07;;;;;;;1.23;1.13;;;19.10;47.10;;;;;;5035855;28;20487;-63
2023/04/24 11:29:45;;;;;;;1.20;1.10;;;19.10;47.10;;;;;;5020060;28;20441;-61
2023/04/24 11:32:38;;;;;;;1.40;1.30;;;19.10;47.10;;;;;;5032037;28;20453;-63
2023/04/24 11:35:07;;;;;;;1.10;1.00;;;19.10;47.10;;;;;;5029530;28;20434;-63
2023/04/24 11:37:41;;;;;;;1.23;1.13;;;19.10;47.10;;;;;;5033667;28;20441;-61
2023/04/24 11:40:08;;;;;;;1.10;1.00;;;19.10;47.10;;;;;;5037658;28;20484;-62
2023/04/24 11:42:43;;;;;;;1.37;1.27;;;19.10;47.10;;;;;;5040355;28;20454;-62
2023/04/24 11:45:13;;;;;;;1.30;1.20;;;19.10;47.10;;;;;;5033899;28;20437;-66
2023/04/24 11:47:39;;;;;;;1.23;1.13;;;19.10;47.10;;;;;;5034489;28;20456;-62
2023/04/24 11:50:07;;;;;;;1.30;1.20;;;19.10;47.10;;;;;;5032319;28;20902;-62
2023/04/24 11:52:36;;;;;;;1.10;1.00;;;19.10;47.10;;;;;;5034564;28;20445;-62
2023/04/24 11:55:03;;;;;;;1.20;1.10;;;19.10;47.10;;;;;;5036357;28;20438;-62
2023/04/24 11:57:33;;;;;;;1.23;1.13;;;19.10;47.20;;;;;;5038193;28;20471;-63
2023/04/24 11:59:59;;;;;;;1.30;1.20;;;19.10;47.10;;;;;;5036695;28;20441;-61
2023/04/24 12:02:26;;;;;;;1.33;1.23;;;19.10;47.10;;;;;;5031484;28;20426;-63
2023/04/24 12:04:55;;;;;;;1.17;1.07;;;19.10;47.10;;;;;;5036118;28;20427;-64
2023/04/24 12:07:22;;;;;;;1.13;1.03;;;19.20;47.20;;;;;;5035902;28;20471;-61
2023/04/24 12:09:56;;;;;;;1.07;1.00;;;19.10;47.00;;;;;;5034511;28;20463;-64
2023/04/24 12:12:25;;;;;;;1.40;1.30;;;19.10;47.00;;;;;;5034098;28;20471;-61
2023/04/24 12:14:58;;;;;;;1.20;1.10;;;19.20;47.10;;;;;;5033783;28;20434;-63
2023/04/24 12:17:30;;;;;;;1.20;1.10;;;19.20;47.10;;;;;;5033194;28;20897;-62
2023/04/24 12:20:07;;;;;;;1.33;1.10;;;19.20;47.90;;;;;;5038227;28;20430;-63
2023/04/24 12:22:47;;;;;;;1.37;1.27;;;19.20;47.10;;;;;;5035978;28;21119;-61
2023/04/24 12:25:15;;;;;;;1.30;1.20;;;19.10;47.10;;;;;;5018613;28;20973;-62
2023/04/24 12:27:40;;;;;;;1.10;1.00;;;19.20;47.10;;;;;;5035553;28;20415;-62
2023/04/24 12:30:14;;;;;;;1.10;1.00;;;19.20;47.10;;;;;;5033801;28;20874;-62
2023/04/24 12:33:00;;;;;;;0.90;0.90;;;19.20;47.10;;;;;;5024742;28;20329;-61
2023/04/24 12:35:31;;;;;;;1.30;1.20;;;19.20;47.10;;;;;;5030381;28;20482;-64
2023/04/24 12:38:09;;;;;;;1.27;1.10;;;19.10;47.80;;;;;;5035403;28;20437;-64
2023/04/24 12:40:35;;;;;;;1.17;1.07;;;19.20;47.10;;;;;;5037997;28;20433;-62
2023/04/24 12:43:00;;;;;;;1.20;1.10;;;19.20;47.10;;;;;;5028154;28;20469;-65
2023/04/24 12:45:27;;;;;;;1.10;1.00;;;19.20;47.10;;;;;;5031031;28;20248;-61
2023/04/24 12:47:53;;;;;;;1.10;1.00;;;19.20;47.10;;;;;;5026251;28;20230;-64
2023/04/24 12:50:19;;;;;;;1.00;0.90;;;19.20;47.10;;;;;;5022595;28;20437;-62